sensor_id;sensor_type;location;lat;lon;timestamp;P1;durP1;ratioP1;P2;durP2;ratioP2
54937;SDS011;52756;52.826;6.214;2023-05-16T00:02:15;6.30;;;2.00;;
54937;SDS011;52756;52.826;6.214;2023-05-16T00:04:42;10.52;;;2.40;;
54937;SDS011;52756;52.826;6.214;2023-05-16T00:07:08;8.23;;;1.95;;
54937;SDS011;52756;52.826;6.214;2023-05-16T00:09:34;7.97;;;2.20;;
54937;SDS011;52756;52.826;6.214;2023-05-16T00:11:59;6.35;;;1.70;;
54937;SDS011;52756;52.826;6.214;2023-05-16T00:14:25;9.57;;;2.38;;
54937;SDS011;52756;52.826;6.214;2023-05-16T00:16:54;8.15;;;1.80;;
54937;SDS011;52756;52.826;6.214;2023-05-16T00:19:22;11.27;;;2.33;;
54937;SDS011;52756;52.826;6.214;2023-05-16T00:21:48;9.85;;;2.35;;
54937;SDS011;52756;52.826;6.214;2023-05-16T00:24:14;10.65;;;1.80;;
54937;SDS011;52756;52.826;6.214;2023-05-16T00:26:40;9.93;;;2.47;;
54937;SDS011;52756;52.826;6.214;2023-05-16T00:29:05;11.02;;;2.35;;
54937;SDS011;52756;52.826;6.214;2023-05-16T00:31:31;10.18;;;1.80;;
54937;SDS011;52756;52.826;6.214;2023-05-16T00:33:57;8.68;;;2.20;;
54937;SDS011;52756;52.826;6.214;2023-05-16T00:36:23;11.23;;;1.75;;
54937;SDS011;52756;52.826;6.214;2023-05-16T00:38:48;9.88;;;1.73;;
54937;SDS011;52756;52.826;6.214;2023-05-16T00:41:15;9.65;;;1.85;;
54937;SDS011;52756;52.826;6.214;2023-05-16T00:43:41;11.88;;;2.65;;
54937;SDS011;52756;52.826;6.214;2023-05-16T00:46:07;11.20;;;2.20;;
54937;SDS011;52756;52.826;6.214;2023-05-16T00:48:33;7.85;;;2.35;;
54937;SDS011;52756;52.826;6.214;2023-05-16T00:50:59;8.00;;;2.17;;
54937;SDS011;52756;52.826;6.214;2023-05-16T00:53:26;9.07;;;2.35;;
54937;SDS011;52756;52.826;6.214;2023-05-16T00:55:51;8.85;;;1.92;;
54937;SDS011;52756;52.826;6.214;2023-05-16T00:58:17;9.32;;;1.60;;
54937;SDS011;52756;52.826;6.214;2023-05-16T01:00:45;8.05;;;1.50;;
54937;SDS011;52756;52.826;6.214;2023-05-16T01:03:11;7.28;;;1.60;;
54937;SDS011;52756;52.826;6.214;2023-05-16T01:05:37;7.28;;;2.35;;
54937;SDS011;52756;52.826;6.214;2023-05-16T01:08:03;11.00;;;1.90;;
54937;SDS011;52756;52.826;6.214;2023-05-16T01:13:21;9.27;;;2.15;;
54937;SDS011;52756;52.826;6.214;2023-05-16T01:15:58;7.80;;;1.73;;
54937;SDS011;52756;52.826;6.214;2023-05-16T01:26:59;8.02;;;2.22;;
54937;SDS011;52756;52.826;6.214;2023-05-16T01:29:25;8.38;;;1.85;;
54937;SDS011;52756;52.826;6.214;2023-05-16T01:31:51;7.75;;;1.40;;
54937;SDS011;52756;52.826;6.214;2023-05-16T01:34:17;9.27;;;2.25;;
54937;SDS011;52756;52.826;6.214;2023-05-16T01:39:14;11.77;;;1.80;;
54937;SDS011;52756;52.826;6.214;2023-05-16T01:42:09;7.75;;;1.58;;
54937;SDS011;52756;52.826;6.214;2023-05-16T01:44:45;9.05;;;1.80;;
54937;SDS011;52756;52.826;6.214;2023-05-16T01:47:18;6.75;;;1.63;;
54937;SDS011;52756;52.826;6.214;2023-05-16T01:55:09;9.32;;;1.20;;
54937;SDS011;52756;52.826;6.214;2023-05-16T01:57:39;7.30;;;1.42;;
54937;SDS011;52756;52.826;6.214;2023-05-16T02:00:06;7.53;;;1.77;;
54937;SDS011;52756;52.826;6.214;2023-05-16T02:02:33;6.35;;;1.40;;
54937;SDS011;52756;52.826;6.214;2023-05-16T02:04:58;10.10;;;1.60;;
54937;SDS011;52756;52.826;6.214;2023-05-16T02:07:24;6.75;;;1.92;;
54937;SDS011;52756;52.826;6.214;2023-05-16T02:09:50;7.28;;;1.85;;
54937;SDS011;52756;52.826;6.214;2023-05-16T02:12:15;7.20;;;1.88;;
54937;SDS011;52756;52.826;6.214;2023-05-16T02:14:42;7.40;;;1.70;;
54937;SDS011;52756;52.826;6.214;2023-05-16T02:17:07;7.30;;;1.83;;
54937;SDS011;52756;52.826;6.214;2023-05-16T02:19:33;5.38;;;1.20;;
54937;SDS011;52756;52.826;6.214;2023-05-16T02:21:59;6.43;;;1.85;;
54937;SDS011;52756;52.826;6.214;2023-05-16T02:24:24;3.20;;;1.17;;
54937;SDS011;52756;52.826;6.214;2023-05-16T02:26:50;7.20;;;1.92;;
54937;SDS011;52756;52.826;6.214;2023-05-16T02:29:16;4.93;;;1.60;;
54937;SDS011;52756;52.826;6.214;2023-05-16T02:31:42;7.60;;;1.48;;
54937;SDS011;52756;52.826;6.214;2023-05-16T02:34:09;6.32;;;1.40;;
54937;SDS011;52756;52.826;6.214;2023-05-16T02:36:35;8.35;;;1.60;;
54937;SDS011;52756;52.826;6.214;2023-05-16T02:39:01;5.22;;;1.52;;
54937;SDS011;52756;52.826;6.214;2023-05-16T02:41:28;6.97;;;1.80;;
54937;SDS011;52756;52.826;6.214;2023-05-16T02:43:54;7.65;;;1.30;;
54937;SDS011;52756;52.826;6.214;2023-05-16T02:46:20;7.72;;;1.48;;
54937;SDS011;52756;52.826;6.214;2023-05-16T02:48:50;7.72;;;1.25;;
54937;SDS011;52756;52.826;6.214;2023-05-16T02:51:16;5.60;;;1.30;;
54937;SDS011;52756;52.826;6.214;2023-05-16T02:53:44;5.80;;;1.40;;
54937;SDS011;52756;52.826;6.214;2023-05-16T02:56:10;7.57;;;1.60;;
54937;SDS011;52756;52.826;6.214;2023-05-16T02:58:35;4.13;;;1.05;;
54937;SDS011;52756;52.826;6.214;2023-05-16T03:01:01;7.43;;;1.80;;
54937;SDS011;52756;52.826;6.214;2023-05-16T03:03:27;8.95;;;2.40;;
54937;SDS011;52756;52.826;6.214;2023-05-16T03:05:53;4.35;;;1.33;;
54937;SDS011;52756;52.826;6.214;2023-05-16T03:08:19;4.93;;;1.05;;
54937;SDS011;52756;52.826;6.214;2023-05-16T03:10:45;5.88;;;1.67;;
54937;SDS011;52756;52.826;6.214;2023-05-16T03:13:11;9.00;;;2.05;;
54937;SDS011;52756;52.826;6.214;2023-05-16T03:15:36;4.70;;;1.05;;
54937;SDS011;52756;52.826;6.214;2023-05-16T03:18:02;8.50;;;1.40;;
54937;SDS011;52756;52.826;6.214;2023-05-16T03:20:28;4.97;;;1.30;;
54937;SDS011;52756;52.826;6.214;2023-05-16T03:22:53;6.65;;;1.25;;
54937;SDS011;52756;52.826;6.214;2023-05-16T03:25:19;7.40;;;1.98;;
54937;SDS011;52756;52.826;6.214;2023-05-16T03:27:45;7.50;;;1.33;;
54937;SDS011;52756;52.826;6.214;2023-05-16T03:30:11;5.88;;;1.30;;
54937;SDS011;52756;52.826;6.214;2023-05-16T03:32:37;6.53;;;1.20;;
54937;SDS011;52756;52.826;6.214;2023-05-16T03:35:03;4.03;;;1.08;;
54937;SDS011;52756;52.826;6.214;2023-05-16T03:37:29;4.25;;;1.30;;
54937;SDS011;52756;52.826;6.214;2023-05-16T03:39:55;3.83;;;1.15;;
54937;SDS011;52756;52.826;6.214;2023-05-16T03:42:21;5.40;;;1.00;;
54937;SDS011;52756;52.826;6.214;2023-05-16T03:44:47;6.88;;;1.33;;
54937;SDS011;52756;52.826;6.214;2023-05-16T03:47:13;7.75;;;1.63;;
54937;SDS011;52756;52.826;6.214;2023-05-16T03:49:38;7.57;;;1.58;;
54937;SDS011;52756;52.826;6.214;2023-05-16T03:52:05;7.63;;;1.70;;
54937;SDS011;52756;52.826;6.214;2023-05-16T03:54:31;6.93;;;1.55;;
54937;SDS011;52756;52.826;6.214;2023-05-16T03:56:57;9.05;;;1.30;;
54937;SDS011;52756;52.826;6.214;2023-05-16T03:59:22;7.22;;;1.45;;
54937;SDS011;52756;52.826;6.214;2023-05-16T04:01:48;4.75;;;1.35;;
54937;SDS011;52756;52.826;6.214;2023-05-16T04:04:14;5.68;;;1.20;;
54937;SDS011;52756;52.826;6.214;2023-05-16T04:06:40;4.90;;;1.40;;
54937;SDS011;52756;52.826;6.214;2023-05-16T04:09:05;4.68;;;1.23;;
54937;SDS011;52756;52.826;6.214;2023-05-16T04:11:31;8.07;;;1.67;;
54937;SDS011;52756;52.826;6.214;2023-05-16T04:13:58;6.88;;;2.40;;
54937;SDS011;52756;52.826;6.214;2023-05-16T04:16:25;6.55;;;1.25;;
54937;SDS011;52756;52.826;6.214;2023-05-16T04:18:51;7.03;;;1.40;;
54937;SDS011;52756;52.826;6.214;2023-05-16T04:21:17;8.95;;;2.00;;
54937;SDS011;52756;52.826;6.214;2023-05-16T04:23:43;5.10;;;1.45;;
54937;SDS011;52756;52.826;6.214;2023-05-16T04:26:09;6.60;;;1.30;;
54937;SDS011;52756;52.826;6.214;2023-05-16T04:28:34;6.82;;;1.52;;
54937;SDS011;52756;52.826;6.214;2023-05-16T04:31:00;6.82;;;1.77;;
54937;SDS011;52756;52.826;6.214;2023-05-16T04:33:27;3.80;;;1.05;;
54937;SDS011;52756;52.826;6.214;2023-05-16T04:35:52;5.38;;;1.63;;
54937;SDS011;52756;52.826;6.214;2023-05-16T04:38:18;6.10;;;1.70;;
54937;SDS011;52756;52.826;6.214;2023-05-16T04:40:45;5.20;;;1.70;;
54937;SDS011;52756;52.826;6.214;2023-05-16T04:43:10;9.00;;;1.73;;
54937;SDS011;52756;52.826;6.214;2023-05-16T04:45:36;4.63;;;1.42;;
54937;SDS011;52756;52.826;6.214;2023-05-16T04:48:02;6.60;;;1.60;;
54937;SDS011;52756;52.826;6.214;2023-05-16T04:50:28;5.00;;;1.17;;
54937;SDS011;52756;52.826;6.214;2023-05-16T04:52:54;9.93;;;2.17;;
54937;SDS011;52756;52.826;6.214;2023-05-16T04:55:19;7.18;;;1.95;;
54937;SDS011;52756;52.826;6.214;2023-05-16T04:57:45;5.53;;;1.85;;
54937;SDS011;52756;52.826;6.214;2023-05-16T05:00:11;7.70;;;2.20;;
54937;SDS011;52756;52.826;6.214;2023-05-16T05:02:37;8.20;;;2.00;;
54937;SDS011;52756;52.826;6.214;2023-05-16T05:05:04;10.52;;;1.85;;
54937;SDS011;52756;52.826;6.214;2023-05-16T05:07:31;8.55;;;1.98;;
54937;SDS011;52756;52.826;6.214;2023-05-16T05:09:57;6.63;;;1.50;;
54937;SDS011;52756;52.826;6.214;2023-05-16T05:12:23;8.70;;;2.20;;
54937;SDS011;52756;52.826;6.214;2023-05-16T05:14:49;3.97;;;1.42;;
54937;SDS011;52756;52.826;6.214;2023-05-16T05:17:16;12.57;;;3.13;;
54937;SDS011;52756;52.826;6.214;2023-05-16T05:19:42;10.68;;;2.05;;
54937;SDS011;52756;52.826;6.214;2023-05-16T05:22:07;4.18;;;1.42;;
54937;SDS011;52756;52.826;6.214;2023-05-16T05:24:33;7.18;;;2.00;;
54937;SDS011;52756;52.826;6.214;2023-05-16T05:26:59;10.20;;;2.58;;
54937;SDS011;52756;52.826;6.214;2023-05-16T05:29:24;9.20;;;1.90;;
54937;SDS011;52756;52.826;6.214;2023-05-16T05:31:51;8.05;;;2.05;;
54937;SDS011;52756;52.826;6.214;2023-05-16T05:34:16;7.75;;;2.35;;
54937;SDS011;52756;52.826;6.214;2023-05-16T05:36:42;7.90;;;1.65;;
54937;SDS011;52756;52.826;6.214;2023-05-16T05:39:08;8.38;;;1.50;;
54937;SDS011;52756;52.826;6.214;2023-05-16T05:41:34;6.95;;;1.70;;
54937;SDS011;52756;52.826;6.214;2023-05-16T05:44:01;7.60;;;1.83;;
54937;SDS011;52756;52.826;6.214;2023-05-16T05:46:27;6.20;;;1.70;;
54937;SDS011;52756;52.826;6.214;2023-05-16T05:48:52;7.88;;;2.30;;
54937;SDS011;52756;52.826;6.214;2023-05-16T05:51:18;7.80;;;1.60;;
54937;SDS011;52756;52.826;6.214;2023-05-16T05:53:44;8.00;;;1.67;;
54937;SDS011;52756;52.826;6.214;2023-05-16T05:56:10;7.85;;;1.90;;
54937;SDS011;52756;52.826;6.214;2023-05-16T05:58:36;5.88;;;1.75;;
54937;SDS011;52756;52.826;6.214;2023-05-16T06:01:02;6.68;;;2.15;;
54937;SDS011;52756;52.826;6.214;2023-05-16T06:03:28;7.57;;;1.95;;
54937;SDS011;52756;52.826;6.214;2023-05-16T06:05:54;7.18;;;2.03;;
54937;SDS011;52756;52.826;6.214;2023-05-16T06:08:20;9.60;;;2.08;;
54937;SDS011;52756;52.826;6.214;2023-05-16T06:10:46;9.75;;;1.98;;
54937;SDS011;52756;52.826;6.214;2023-05-16T06:13:11;9.88;;;2.10;;
54937;SDS011;52756;52.826;6.214;2023-05-16T06:15:37;7.63;;;1.63;;
54937;SDS011;52756;52.826;6.214;2023-05-16T06:18:03;7.82;;;1.83;;
54937;SDS011;52756;52.826;6.214;2023-05-16T06:20:29;5.68;;;1.55;;
54937;SDS011;52756;52.826;6.214;2023-05-16T06:22:54;8.00;;;2.03;;
54937;SDS011;52756;52.826;6.214;2023-05-16T06:25:20;4.47;;;1.20;;
54937;SDS011;52756;52.826;6.214;2023-05-16T06:27:46;5.30;;;1.40;;
54937;SDS011;52756;52.826;6.214;2023-05-16T06:30:12;6.70;;;1.55;;
54937;SDS011;52756;52.826;6.214;2023-05-16T06:32:37;6.68;;;1.20;;
54937;SDS011;52756;52.826;6.214;2023-05-16T06:35:05;8.77;;;1.27;;
54937;SDS011;52756;52.826;6.214;2023-05-16T06:37:31;7.38;;;1.50;;
54937;SDS011;52756;52.826;6.214;2023-05-16T06:39:57;4.68;;;1.13;;
54937;SDS011;52756;52.826;6.214;2023-05-16T06:42:23;4.55;;;1.05;;
54937;SDS011;52756;52.826;6.214;2023-05-16T06:44:48;6.22;;;1.55;;
54937;SDS011;52756;52.826;6.214;2023-05-16T06:47:15;5.55;;;1.38;;
54937;SDS011;52756;52.826;6.214;2023-05-16T06:49:40;6.40;;;1.38;;
54937;SDS011;52756;52.826;6.214;2023-05-16T06:52:06;4.20;;;1.30;;
54937;SDS011;52756;52.826;6.214;2023-05-16T06:54:32;6.28;;;1.10;;
54937;SDS011;52756;52.826;6.214;2023-05-16T06:56:58;4.22;;;1.00;;
54937;SDS011;52756;52.826;6.214;2023-05-16T06:59:23;4.00;;;1.10;;
54937;SDS011;52756;52.826;6.214;2023-05-16T07:01:49;6.28;;;1.40;;
54937;SDS011;52756;52.826;6.214;2023-05-16T07:04:15;7.72;;;1.55;;
54937;SDS011;52756;52.826;6.214;2023-05-16T07:06:40;5.00;;;1.40;;
54937;SDS011;52756;52.826;6.214;2023-05-16T07:09:06;4.68;;;1.10;;
54937;SDS011;52756;52.826;6.214;2023-05-16T07:11:32;4.80;;;1.17;;
54937;SDS011;52756;52.826;6.214;2023-05-16T07:13:58;5.32;;;1.38;;
54937;SDS011;52756;52.826;6.214;2023-05-16T07:16:23;4.57;;;0.90;;
54937;SDS011;52756;52.826;6.214;2023-05-16T07:18:52;5.22;;;0.98;;
54937;SDS011;52756;52.826;6.214;2023-05-16T07:21:18;6.93;;;1.00;;
54937;SDS011;52756;52.826;6.214;2023-05-16T07:23:44;6.43;;;1.33;;
54937;SDS011;52756;52.826;6.214;2023-05-16T07:26:10;5.13;;;1.30;;
54937;SDS011;52756;52.826;6.214;2023-05-16T07:28:35;4.63;;;1.08;;
54937;SDS011;52756;52.826;6.214;2023-05-16T07:31:01;7.03;;;1.42;;
54937;SDS011;52756;52.826;6.214;2023-05-16T07:33:27;4.80;;;1.00;;
54937;SDS011;52756;52.826;6.214;2023-05-16T07:35:52;6.45;;;1.67;;
54937;SDS011;52756;52.826;6.214;2023-05-16T07:38:19;4.82;;;1.05;;
54937;SDS011;52756;52.826;6.214;2023-05-16T07:40:45;5.97;;;1.20;;
54937;SDS011;52756;52.826;6.214;2023-05-16T07:43:11;4.65;;;1.38;;
54937;SDS011;52756;52.826;6.214;2023-05-16T07:45:37;5.07;;;1.13;;
54937;SDS011;52756;52.826;6.214;2023-05-16T07:48:03;5.57;;;1.30;;
54937;SDS011;52756;52.826;6.214;2023-05-16T07:50:28;4.75;;;1.65;;
54937;SDS011;52756;52.826;6.214;2023-05-16T07:52:54;5.22;;;1.45;;
54937;SDS011;52756;52.826;6.214;2023-05-16T07:55:20;3.90;;;1.00;;
54937;SDS011;52756;52.826;6.214;2023-05-16T07:57:48;3.40;;;1.25;;
54937;SDS011;52756;52.826;6.214;2023-05-16T08:00:15;6.35;;;1.40;;
54937;SDS011;52756;52.826;6.214;2023-05-16T08:02:41;6.30;;;1.83;;
54937;SDS011;52756;52.826;6.214;2023-05-16T08:05:07;5.30;;;1.40;;
54937;SDS011;52756;52.826;6.214;2023-05-16T08:07:33;5.93;;;1.38;;
54937;SDS011;52756;52.826;6.214;2023-05-16T08:09:59;5.30;;;1.20;;
54937;SDS011;52756;52.826;6.214;2023-05-16T08:12:25;9.45;;;2.13;;
54937;SDS011;52756;52.826;6.214;2023-05-16T08:14:55;5.60;;;1.33;;
54937;SDS011;52756;52.826;6.214;2023-05-16T08:17:21;4.30;;;1.40;;
54937;SDS011;52756;52.826;6.214;2023-05-16T08:19:46;5.85;;;1.67;;
54937;SDS011;52756;52.826;6.214;2023-05-16T08:22:12;4.03;;;0.93;;
54937;SDS011;52756;52.826;6.214;2023-05-16T08:24:38;3.85;;;1.00;;
54937;SDS011;52756;52.826;6.214;2023-05-16T08:27:03;4.80;;;1.33;;
54937;SDS011;52756;52.826;6.214;2023-05-16T08:29:29;8.52;;;2.17;;
54937;SDS011;52756;52.826;6.214;2023-05-16T08:31:55;5.03;;;1.00;;
54937;SDS011;52756;52.826;6.214;2023-05-16T08:34:21;5.50;;;1.30;;
54937;SDS011;52756;52.826;6.214;2023-05-16T08:36:47;3.90;;;1.00;;
54937;SDS011;52756;52.826;6.214;2023-05-16T08:39:13;4.22;;;1.20;;
54937;SDS011;52756;52.826;6.214;2023-05-16T08:41:39;4.38;;;1.23;;
54937;SDS011;52756;52.826;6.214;2023-05-16T08:44:05;4.18;;;1.23;;
54937;SDS011;52756;52.826;6.214;2023-05-16T08:46:31;4.30;;;0.98;;
54937;SDS011;52756;52.826;6.214;2023-05-16T08:48:59;5.40;;;1.42;;
54937;SDS011;52756;52.826;6.214;2023-05-16T08:51:30;3.53;;;1.10;;
54937;SDS011;52756;52.826;6.214;2023-05-16T08:54:01;3.67;;;1.15;;
54937;SDS011;52756;52.826;6.214;2023-05-16T08:56:28;4.70;;;1.20;;
54937;SDS011;52756;52.826;6.214;2023-05-16T08:58:55;4.05;;;1.20;;
54937;SDS011;52756;52.826;6.214;2023-05-16T09:01:22;8.32;;;1.90;;
54937;SDS011;52756;52.826;6.214;2023-05-16T09:03:48;5.72;;;1.02;;
54937;SDS011;52756;52.826;6.214;2023-05-16T09:06:15;3.40;;;1.08;;
54937;SDS011;52756;52.826;6.214;2023-05-16T09:08:41;4.32;;;1.10;;
54937;SDS011;52756;52.826;6.214;2023-05-16T09:11:07;7.13;;;1.30;;
54937;SDS011;52756;52.826;6.214;2023-05-16T09:13:33;4.07;;;1.10;;
54937;SDS011;52756;52.826;6.214;2023-05-16T09:16:12;3.05;;;0.90;;
54937;SDS011;52756;52.826;6.214;2023-05-16T09:18:43;6.07;;;1.48;;
54937;SDS011;52756;52.826;6.214;2023-05-16T09:21:10;5.65;;;1.33;;
54937;SDS011;52756;52.826;6.214;2023-05-16T09:23:37;5.32;;;1.10;;
54937;SDS011;52756;52.826;6.214;2023-05-16T09:26:04;5.32;;;1.20;;
54937;SDS011;52756;52.826;6.214;2023-05-16T09:28:32;6.00;;;1.65;;
54937;SDS011;52756;52.826;6.214;2023-05-16T09:30:58;8.02;;;2.10;;
54937;SDS011;52756;52.826;6.214;2023-05-16T09:33:26;4.28;;;1.00;;
54937;SDS011;52756;52.826;6.214;2023-05-16T09:35:59;5.25;;;1.40;;
54937;SDS011;52756;52.826;6.214;2023-05-16T09:38:26;6.47;;;1.50;;
54937;SDS011;52756;52.826;6.214;2023-05-16T09:40:53;6.72;;;1.55;;
54937;SDS011;52756;52.826;6.214;2023-05-16T09:43:21;5.75;;;1.30;;
54937;SDS011;52756;52.826;6.214;2023-05-16T09:45:49;4.57;;;1.10;;
54937;SDS011;52756;52.826;6.214;2023-05-16T09:48:15;3.88;;;1.15;;
54937;SDS011;52756;52.826;6.214;2023-05-16T09:50:51;5.95;;;1.42;;
54937;SDS011;52756;52.826;6.214;2023-05-16T09:53:27;5.63;;;1.40;;
54937;SDS011;52756;52.826;6.214;2023-05-16T09:56:07;6.82;;;1.73;;
54937;SDS011;52756;52.826;6.214;2023-05-16T09:58:36;6.80;;;2.03;;
54937;SDS011;52756;52.826;6.214;2023-05-16T10:01:03;5.45;;;1.20;;
54937;SDS011;52756;52.826;6.214;2023-05-16T10:03:30;6.78;;;1.40;;
54937;SDS011;52756;52.826;6.214;2023-05-16T10:05:56;5.78;;;1.75;;
54937;SDS011;52756;52.826;6.214;2023-05-16T10:08:24;5.53;;;1.00;;
54937;SDS011;52756;52.826;6.214;2023-05-16T10:10:51;4.85;;;1.10;;
54937;SDS011;52756;52.826;6.214;2023-05-16T10:13:21;5.00;;;1.10;;
54937;SDS011;52756;52.826;6.214;2023-05-16T10:15:49;6.15;;;1.50;;
54937;SDS011;52756;52.826;6.214;2023-05-16T10:18:23;3.13;;;1.20;;
54937;SDS011;52756;52.826;6.214;2023-05-16T10:20:54;4.45;;;1.38;;
54937;SDS011;52756;52.826;6.214;2023-05-16T10:23:22;4.25;;;1.33;;
54937;SDS011;52756;52.826;6.214;2023-05-16T10:25:50;6.82;;;2.17;;
54937;SDS011;52756;52.826;6.214;2023-05-16T10:28:17;5.22;;;1.27;;
54937;SDS011;52756;52.826;6.214;2023-05-16T10:30:44;6.25;;;1.83;;
54937;SDS011;52756;52.826;6.214;2023-05-16T10:33:14;4.93;;;1.40;;
54937;SDS011;52756;52.826;6.214;2023-05-16T10:35:42;6.00;;;1.67;;
54937;SDS011;52756;52.826;6.214;2023-05-16T10:38:09;4.60;;;0.95;;
54937;SDS011;52756;52.826;6.214;2023-05-16T10:40:37;4.07;;;1.10;;
54937;SDS011;52756;52.826;6.214;2023-05-16T10:43:04;4.30;;;0.93;;
54937;SDS011;52756;52.826;6.214;2023-05-16T10:45:31;6.00;;;1.45;;
54937;SDS011;52756;52.826;6.214;2023-05-16T10:47:58;5.97;;;1.60;;
54937;SDS011;52756;52.826;6.214;2023-05-16T10:55:44;7.03;;;1.42;;
54937;SDS011;52756;52.826;6.214;2023-05-16T10:58:22;4.90;;;1.30;;
54937;SDS011;52756;52.826;6.214;2023-05-16T11:00:48;2.72;;;0.95;;
54937;SDS011;52756;52.826;6.214;2023-05-16T11:03:21;5.28;;;1.65;;
54937;SDS011;52756;52.826;6.214;2023-05-16T11:05:52;5.25;;;1.58;;
54937;SDS011;52756;52.826;6.214;2023-05-16T11:08:20;5.22;;;1.60;;
54937;SDS011;52756;52.826;6.214;2023-05-16T11:10:46;8.18;;;1.60;;
54937;SDS011;52756;52.826;6.214;2023-05-16T11:13:12;6.65;;;1.50;;
54937;SDS011;52756;52.826;6.214;2023-05-16T11:15:43;7.13;;;1.63;;
54937;SDS011;52756;52.826;6.214;2023-05-16T11:18:12;4.30;;;2.03;;
54937;SDS011;52756;52.826;6.214;2023-05-16T11:20:40;5.22;;;1.30;;
54937;SDS011;52756;52.826;6.214;2023-05-16T11:25:41;6.05;;;1.58;;
54937;SDS011;52756;52.826;6.214;2023-05-16T11:28:07;5.35;;;1.58;;
54937;SDS011;52756;52.826;6.214;2023-05-16T11:30:36;6.15;;;1.30;;
54937;SDS011;52756;52.826;6.214;2023-05-16T11:33:12;6.85;;;1.70;;
54937;SDS011;52756;52.826;6.214;2023-05-16T11:35:38;5.53;;;0.93;;
54937;SDS011;52756;52.826;6.214;2023-05-16T11:38:04;6.18;;;1.63;;
54937;SDS011;52756;52.826;6.214;2023-05-16T11:40:29;6.53;;;1.52;;
54937;SDS011;52756;52.826;6.214;2023-05-16T11:42:58;5.82;;;1.67;;
54937;SDS011;52756;52.826;6.214;2023-05-16T11:45:27;6.05;;;1.83;;
54937;SDS011;52756;52.826;6.214;2023-05-16T11:47:53;4.63;;;1.35;;
54937;SDS011;52756;52.826;6.214;2023-05-16T11:50:20;6.65;;;1.92;;
54937;SDS011;52756;52.826;6.214;2023-05-16T11:52:56;3.92;;;1.42;;
54937;SDS011;52756;52.826;6.214;2023-05-16T11:55:23;5.28;;;1.42;;
54937;SDS011;52756;52.826;6.214;2023-05-16T11:57:55;4.13;;;1.40;;
54937;SDS011;52756;52.826;6.214;2023-05-16T12:00:22;6.05;;;1.40;;
54937;SDS011;52756;52.826;6.214;2023-05-16T12:02:51;5.80;;;1.42;;
54937;SDS011;52756;52.826;6.214;2023-05-16T12:05:18;4.55;;;1.25;;
54937;SDS011;52756;52.826;6.214;2023-05-16T12:07:49;5.40;;;1.45;;
54937;SDS011;52756;52.826;6.214;2023-05-16T12:10:15;6.97;;;1.38;;
54937;SDS011;52756;52.826;6.214;2023-05-16T12:12:43;3.88;;;1.50;;
54937;SDS011;52756;52.826;6.214;2023-05-16T12:15:11;5.22;;;2.00;;
54937;SDS011;52756;52.826;6.214;2023-05-16T12:17:38;6.07;;;1.98;;
54937;SDS011;52756;52.826;6.214;2023-05-16T12:20:05;5.70;;;1.58;;
54937;SDS011;52756;52.826;6.214;2023-05-16T12:22:39;5.18;;;2.03;;
54937;SDS011;52756;52.826;6.214;2023-05-16T12:27:56;6.30;;;1.48;;
54937;SDS011;52756;52.826;6.214;2023-05-16T12:30:23;5.40;;;1.60;;
54937;SDS011;52756;52.826;6.214;2023-05-16T12:33:09;4.07;;;1.88;;
54937;SDS011;52756;52.826;6.214;2023-05-16T12:35:37;4.95;;;1.90;;
54937;SDS011;52756;52.826;6.214;2023-05-16T12:38:05;6.65;;;1.70;;
54937;SDS011;52756;52.826;6.214;2023-05-16T12:40:36;6.78;;;2.05;;
54937;SDS011;52756;52.826;6.214;2023-05-16T12:43:03;6.85;;;2.10;;
54937;SDS011;52756;52.826;6.214;2023-05-16T12:45:30;5.63;;;1.70;;
54937;SDS011;52756;52.826;6.214;2023-05-16T12:48:02;9.98;;;2.45;;
54937;SDS011;52756;52.826;6.214;2023-05-16T12:50:31;4.27;;;1.80;;
54937;SDS011;52756;52.826;6.214;2023-05-16T12:52:58;3.33;;;1.55;;
54937;SDS011;52756;52.826;6.214;2023-05-16T12:55:24;6.78;;;2.25;;
54937;SDS011;52756;52.826;6.214;2023-05-16T12:57:51;6.57;;;2.00;;
54937;SDS011;52756;52.826;6.214;2023-05-16T13:00:17;6.60;;;2.08;;
54937;SDS011;52756;52.826;6.214;2023-05-16T13:02:44;6.05;;;2.40;;
54937;SDS011;52756;52.826;6.214;2023-05-16T13:05:11;5.45;;;2.55;;
54937;SDS011;52756;52.826;6.214;2023-05-16T13:07:37;6.82;;;2.28;;
54937;SDS011;52756;52.826;6.214;2023-05-16T13:10:05;5.88;;;2.47;;
54937;SDS011;52756;52.826;6.214;2023-05-16T13:12:38;8.30;;;2.58;;
54937;SDS011;52756;52.826;6.214;2023-05-16T13:15:08;7.20;;;2.25;;
54937;SDS011;52756;52.826;6.214;2023-05-16T13:17:40;6.93;;;2.35;;
54937;SDS011;52756;52.826;6.214;2023-05-16T13:20:10;4.97;;;2.90;;
54937;SDS011;52756;52.826;6.214;2023-05-16T13:22:39;6.15;;;2.80;;
54937;SDS011;52756;52.826;6.214;2023-05-16T13:25:05;7.25;;;2.95;;
54937;SDS011;52756;52.826;6.214;2023-05-16T13:27:32;5.80;;;2.50;;
54937;SDS011;52756;52.826;6.214;2023-05-16T13:29:58;7.50;;;2.67;;
54937;SDS011;52756;52.826;6.214;2023-05-16T13:32:24;5.93;;;2.95;;
54937;SDS011;52756;52.826;6.214;2023-05-16T13:34:50;4.93;;;2.65;;
54937;SDS011;52756;52.826;6.214;2023-05-16T13:37:16;8.00;;;2.83;;
54937;SDS011;52756;52.826;6.214;2023-05-16T13:39:42;6.38;;;2.95;;
54937;SDS011;52756;52.826;6.214;2023-05-16T13:42:08;7.65;;;2.22;;
54937;SDS011;52756;52.826;6.214;2023-05-16T13:44:34;5.88;;;2.28;;
54937;SDS011;52756;52.826;6.214;2023-05-16T13:47:00;5.55;;;2.20;;
54937;SDS011;52756;52.826;6.214;2023-05-16T13:49:26;6.72;;;2.47;;
54937;SDS011;52756;52.826;6.214;2023-05-16T13:51:52;8.40;;;2.63;;
54937;SDS011;52756;52.826;6.214;2023-05-16T13:54:18;6.03;;;2.53;;
54937;SDS011;52756;52.826;6.214;2023-05-16T13:56:45;6.53;;;3.40;;
54937;SDS011;52756;52.826;6.214;2023-05-16T13:59:11;9.20;;;2.67;;
54937;SDS011;52756;52.826;6.214;2023-05-16T14:01:37;8.98;;;2.97;;
54937;SDS011;52756;52.826;6.214;2023-05-16T14:04:03;7.40;;;2.88;;
54937;SDS011;52756;52.826;6.214;2023-05-16T14:06:29;7.05;;;2.40;;
54937;SDS011;52756;52.826;6.214;2023-05-16T14:08:55;6.80;;;2.70;;
54937;SDS011;52756;52.826;6.214;2023-05-16T14:11:21;6.60;;;2.85;;
54937;SDS011;52756;52.826;6.214;2023-05-16T14:13:50;6.22;;;2.47;;
54937;SDS011;52756;52.826;6.214;2023-05-16T14:16:19;7.53;;;3.00;;
54937;SDS011;52756;52.826;6.214;2023-05-16T14:18:45;6.53;;;2.70;;
54937;SDS011;52756;52.826;6.214;2023-05-16T14:21:11;6.47;;;3.17;;
54937;SDS011;52756;52.826;6.214;2023-05-16T14:23:37;7.15;;;3.38;;
54937;SDS011;52756;52.826;6.214;2023-05-16T14:26:04;7.28;;;2.83;;
54937;SDS011;52756;52.826;6.214;2023-05-16T14:28:30;6.93;;;4.25;;
54937;SDS011;52756;52.826;6.214;2023-05-16T14:30:59;7.45;;;4.43;;
54937;SDS011;52756;52.826;6.214;2023-05-16T14:33:25;7.70;;;3.97;;
54937;SDS011;52756;52.826;6.214;2023-05-16T14:35:51;7.35;;;3.63;;
54937;SDS011;52756;52.826;6.214;2023-05-16T14:38:17;8.25;;;4.32;;
54937;SDS011;52756;52.826;6.214;2023-05-16T14:40:43;6.18;;;4.00;;
54937;SDS011;52756;52.826;6.214;2023-05-16T14:43:09;6.28;;;3.72;;
54937;SDS011;52756;52.826;6.214;2023-05-16T14:45:36;5.03;;;3.00;;
54937;SDS011;52756;52.826;6.214;2023-05-16T14:48:03;6.55;;;3.45;;
54937;SDS011;52756;52.826;6.214;2023-05-16T14:50:30;8.00;;;3.85;;
54937;SDS011;52756;52.826;6.214;2023-05-16T14:52:56;7.20;;;3.00;;
54937;SDS011;52756;52.826;6.214;2023-05-16T14:55:21;7.15;;;3.42;;
54937;SDS011;52756;52.826;6.214;2023-05-16T14:57:47;7.60;;;3.17;;
54937;SDS011;52756;52.826;6.214;2023-05-16T15:00:14;6.60;;;3.15;;
54937;SDS011;52756;52.826;6.214;2023-05-16T15:02:41;6.53;;;3.40;;
54937;SDS011;52756;52.826;6.214;2023-05-16T15:05:07;5.65;;;2.83;;
54937;SDS011;52756;52.826;6.214;2023-05-16T15:07:33;7.82;;;3.30;;
54937;SDS011;52756;52.826;6.214;2023-05-16T15:09:59;6.68;;;3.03;;
54937;SDS011;52756;52.826;6.214;2023-05-16T15:12:26;7.80;;;3.55;;
54937;SDS011;52756;52.826;6.214;2023-05-16T15:14:51;8.70;;;2.97;;
54937;SDS011;52756;52.826;6.214;2023-05-16T15:17:17;4.82;;;2.85;;